.
WxDataArchive / Data Records for 2006-05-03
2006-05-02 May 2006 2006-05-04

Data Records for Wednesday, 03 May 2006

Time	Temp	Chill	HIndex	Humid	Dewpt	 Wind 	HiWind	WindDir	Rain 	Barom 
-----	----	-----	------	-----	-----	------	------	-------	-----	----- 
00:00	53.1	53.1	53.1	86	49.0	0	1	270	0.00	29.926 
00:05	52.9	52.9	52.9	86	48.8	0	1	270	0.00	29.926 
00:10	52.9	52.9	52.9	86	48.8	0	1	270	0.00	29.926 
00:15	52.9	52.9	52.9	86	48.8	0	1	270	0.00	29.929 
00:20	52.9	52.9	52.9	86	48.8	0	1	270	0.00	29.929 
00:25	52.8	52.8	52.8	87	49.0	0	1	270	0.00	29.929 
00:30	52.9	52.9	52.9	87	49.1	1	2	270	0.00	29.931 
00:35	53.1	53.1	53.1	87	49.3	0	2	270	0.00	29.931 
00:40	53.1	53.1	53.1	87	49.3	0	1	270	0.00	29.931 
00:45	52.9	52.9	52.9	87	49.1	0	2	270	0.00	29.932 
00:50	52.9	52.9	52.9	87	49.1	0	1	270	0.00	29.932 
00:55	52.8	52.8	52.8	87	49.0	0	1	270	0.00	29.932 
01:00	52.8	52.8	52.8	87	49.0	0	1	270	0.00	29.937 
01:05	52.8	52.8	52.8	87	49.0	0	1	270	0.00	29.937 
01:10	52.8	52.8	52.8	88	49.3	0	2	248	0.00	29.937 
01:15	52.6	52.6	52.6	88	49.1	0	0	---	0.00	29.929 
01:20	52.5	52.5	52.5	88	49.0	0	0	---	0.00	29.929 
01:25	52.3	52.3	52.3	88	48.9	0	0	---	0.00	29.929 
01:30	52.2	52.2	52.2	88	48.8	0	1	248	0.00	29.923 
01:35	51.9	51.9	51.9	89	48.8	0	1	248	0.00	29.923 
01:40	51.9	51.9	51.9	89	48.8	0	1	248	0.00	29.923 
01:45	51.7	51.7	51.7	89	48.6	0	1	248	0.00	29.919 
01:50	51.7	51.7	51.7	90	48.9	0	1	248	0.00	29.919 
01:55	51.7	51.7	51.7	90	48.9	0	2	248	0.00	29.919 
02:00	51.7	51.7	51.7	90	48.9	0	1	248	0.00	29.918 
02:05	51.7	51.7	51.7	91	49.2	0	2	248	0.00	29.918 
02:10	51.7	51.7	51.7	91	49.2	0	1	248	0.00	29.918 
02:15	51.6	51.6	51.6	91	49.1	0	0	---	0.00	29.918 
02:20	51.4	51.4	51.4	91	48.9	0	0	---	0.00	29.918 
02:25	51.4	51.4	51.4	91	48.9	0	1	248	0.00	29.918 
02:30	51.4	51.4	51.4	92	49.2	0	1	248	0.00	29.915 
02:35	51.3	51.3	51.3	92	49.1	0	0	---	0.00	29.915 
02:40	51.3	51.3	51.3	92	49.1	0	1	248	0.00	29.915 
02:45	51.3	51.3	51.3	92	49.1	0	1	248	0.00	29.916 
02:50	51.3	51.3	51.3	92	49.1	0	1	248	0.00	29.916 
02:55	51.1	51.1	51.1	92	48.9	0	1	248	0.00	29.916 
03:00	51.1	51.1	51.1	92	48.9	0	1	248	0.00	29.919 
03:05	51.0	51.0	51.0	92	48.8	0	2	248	0.00	29.919 
03:10	51.0	51.0	51.0	92	48.8	0	2	248	0.00	29.919 
03:15	50.8	50.8	50.8	92	48.6	0	1	248	0.00	29.919 
03:20	50.7	50.7	50.7	92	48.5	0	1	248	0.00	29.919 
03:25	50.5	50.5	50.5	92	48.3	0	0	---	0.00	29.919 
03:30	50.5	50.5	50.5	93	48.6	0	1	248	0.00	29.919 
03:35	50.4	50.4	50.4	93	48.5	0	0	---	0.00	29.919 
03:40	50.1	50.1	50.1	92	47.9	0	1	248	0.00	29.919 
03:45	49.9	49.9	49.9	92	47.7	0	0	---	0.00	29.923 
03:50	49.8	49.8	49.8	93	47.9	0	0	---	0.00	29.923 
03:55	49.6	49.6	49.6	93	47.7	0	0	---	0.00	29.923 
04:00	49.6	49.6	49.6	93	47.7	0	0	---	0.00	29.919 
04:05	49.6	49.6	49.6	93	47.7	0	0	---	0.00	29.919 
04:10	49.5	49.5	49.5	93	47.6	0	0	---	0.00	29.919 
04:15	49.2	49.2	49.2	93	47.3	0	0	---	0.00	29.916 
04:20	48.9	48.9	48.9	93	47.0	0	0	---	0.00	29.916 
04:25	48.8	48.8	48.8	93	46.9	0	0	---	0.00	29.916 
04:30	48.6	48.6	48.6	93	46.7	0	0	---	0.00	29.921 
04:35	48.3	48.3	48.3	93	46.4	0	0	---	0.00	29.921 
04:40	48.0	48.0	48.0	93	46.1	0	0	---	0.00	29.921 
04:45	47.9	47.9	47.9	93	46.0	0	0	---	0.00	29.929 
04:50	47.7	47.7	47.7	93	45.8	0	0	---	0.00	29.929 
04:55	47.6	47.6	47.6	93	45.7	0	0	---	0.00	29.929 
05:00	47.4	47.4	47.4	94	45.8	0	0	---	0.00	29.937 
05:05	47.4	47.4	47.4	94	45.8	0	0	---	0.00	29.937 
05:10	47.4	47.4	47.4	94	45.8	0	0	---	0.00	29.937 
05:15	47.4	47.4	47.4	94	45.8	0	0	---	0.00	29.947 
05:20	47.4	47.4	47.4	94	45.8	0	0	---	0.00	29.947 
05:25	47.6	47.6	47.6	94	46.0	0	0	---	0.00	29.947 
05:30	47.7	47.7	47.7	94	46.1	0	0	---	0.00	29.956 
05:35	47.7	47.7	47.7	94	46.1	0	1	248	0.00	29.956 
05:40	48.0	48.0	48.0	95	46.6	0	1	248	0.00	29.956 
05:45	48.2	48.2	48.2	95	46.8	0	1	248	0.00	29.969 
05:50	48.2	48.2	48.2	95	46.8	0	0	---	0.00	29.969 
05:55	48.2	48.2	48.2	95	46.8	0	1	248	0.00	29.969 
06:00	48.0	48.0	48.0	95	46.6	0	1	248	0.00	29.976 
06:05	48.2	48.2	48.2	95	46.8	0	1	248	0.00	29.976 
06:10	48.2	48.2	48.2	95	46.8	0	0	---	0.00	29.976 
06:15	48.2	48.2	48.2	95	46.8	0	0	---	0.00	29.981 
06:20	48.0	48.0	48.0	95	46.6	0	0	---	0.00	29.981 
06:25	48.0	48.0	48.0	95	46.6	0	0	---	0.00	29.981 
06:30	47.9	47.9	47.9	95	46.5	0	0	---	0.00	29.974 
06:35	47.7	47.7	47.7	95	46.3	0	0	---	0.00	29.974 
06:40	47.7	47.7	47.7	95	46.3	0	0	---	0.00	29.974 
06:45	47.7	47.7	47.7	95	46.3	0	0	---	0.00	29.984 
06:50	47.7	47.7	47.7	95	46.3	0	0	---	0.00	29.984 
06:55	47.9	47.9	47.9	95	46.5	0	1	248	0.00	29.984 
07:00	48.0	48.0	48.0	95	46.6	0	1	248	0.00	29.990 
07:05	48.0	48.0	48.0	95	46.6	0	0	---	0.00	29.990 
07:10	48.3	48.3	48.3	95	46.9	0	0	---	0.00	29.990 
07:15	48.6	48.6	48.6	95	47.2	0	1	248	0.00	30.001 
07:20	48.9	48.9	48.9	95	47.5	0	1	248	0.00	30.001 
07:25	49.5	49.5	49.5	96	48.4	0	1	248	0.00	30.001 
07:30	49.8	49.8	49.8	96	48.7	0	2	248	0.00	30.003 
07:35	50.1	50.1	50.1	96	49.0	0	1	248	0.00	30.003 
07:40	50.2	50.2	50.2	96	49.1	0	1	248	0.00	30.003 
07:45	50.5	50.5	50.5	96	49.4	0	1	248	0.00	30.001 
07:50	50.8	50.8	50.8	96	49.7	0	1	248	0.00	30.001 
07:55	51.0	51.0	51.0	96	49.9	0	1	248	0.00	30.001 
08:00	51.1	51.1	51.1	96	50.0	0	1	248	0.00	30.009 
08:05	51.3	51.3	51.3	96	50.2	0	1	248	0.00	30.009 
08:10	51.6	51.6	51.6	96	50.5	0	1	248	0.00	30.009 
08:15	52.0	52.0	52.0	96	50.9	0	1	248	0.00	30.016 
08:20	52.6	52.6	52.6	96	51.5	0	1	248	0.00	30.016 
08:25	53.1	53.1	53.1	96	52.0	0	1	248	0.00	30.016 
08:30	53.1	53.1	53.1	96	52.0	0	1	248	0.00	30.016 
08:35	53.5	53.5	53.5	95	52.1	0	2	248	0.00	30.016 
08:40	53.9	53.9	53.9	95	52.5	0	1	248	0.00	30.016 
08:45	54.5	54.5	54.5	95	53.1	0	1	248	0.00	30.007 
08:50	55.4	55.4	55.4	94	53.7	0	2	248	0.00	30.007 
08:55	56.2	56.2	56.2	90	53.3	0	1	248	0.00	30.007 
09:00	56.7	56.7	56.7	88	53.2	0	2	248	0.00	30.012 
09:05	57.2	57.2	57.2	86	53.0	0	0	---	0.00	30.012 
09:10	57.8	57.8	57.8	84	53.0	0	2	248	0.00	30.012 
09:15	58.4	58.4	58.4	83	53.3	1	3	248	0.00	30.013 
09:20	58.9	58.9	58.9	81	53.1	0	1	248	0.00	30.013 
09:25	59.6	59.6	59.6	80	53.4	0	2	248	0.00	30.013 
09:30	60.2	60.2	60.2	77	53.0	1	2	248	0.00	30.012 
09:35	60.9	60.9	60.9	77	53.6	0	1	248	0.00	30.012 
09:40	61.6	61.6	61.6	76	54.0	1	3	248	0.00	30.012 
09:45	62.3	62.3	62.3	74	53.9	1	3	225	0.00	30.014 
09:50	63.2	63.2	63.2	69	52.9	0	1	225	0.00	30.014 
09:55	64.0	64.0	64.0	69	53.6	0	2	225	0.00	30.014 
10:00	64.5	64.5	64.5	69	54.1	0	2	225	0.00	30.008 
10:05	65.0	65.0	65.0	66	53.4	1	2	225	0.00	30.008 
10:10	65.2	65.2	65.2	62	51.8	0	2	225	0.00	30.008 
10:15	65.5	65.5	65.5	62	52.1	1	3	225	0.00	30.009 
10:20	66.0	66.0	66.0	58	50.8	0	2	225	0.00	30.009 
10:25	66.6	66.6	66.6	58	51.4	0	1	225	0.00	30.009 
10:30	66.9	66.9	66.9	62	53.4	0	2	315	0.00	30.012 
10:35	67.3	67.3	67.3	56	51.1	1	2	315	0.00	30.012 
10:40	67.4	67.4	67.4	56	51.1	1	3	0	0.00	30.012 
10:45	67.9	67.9	67.9	54	50.6	0	1	0	0.00	30.009 
10:50	68.4	68.4	68.4	53	50.6	1	2	0	0.00	30.009 
10:55	68.4	68.4	68.4	54	51.1	1	3	0	0.00	30.009 
11:00	68.6	68.6	68.6	57	52.7	1	2	0	0.00	30.009 
11:05	68.9	68.9	68.9	51	50.0	1	2	0	0.00	30.009 
11:10	69.3	69.3	69.3	50	49.8	1	3	248	0.00	30.009 
11:15	69.1	69.1	69.1	53	51.2	0	2	248	0.00	30.012 
11:20	69.4	69.4	69.4	53	51.5	0	2	0	0.00	30.012 
11:25	70.3	70.3	70.3	50	50.8	1	4	68	0.00	30.012 
11:30	70.3	70.3	70.3	51	51.3	2	4	90	0.00	30.012 
11:35	70.4	70.4	70.4	52	51.9	1	4	248	0.00	30.012 
11:40	70.6	70.6	70.6	48	49.9	0	3	248	0.00	30.012 
11:45	70.9	70.9	70.9	49	50.8	1	3	248	0.00	30.019 
11:50	70.9	70.9	70.9	48	50.2	1	3	248	0.00	30.019 
11:55	70.9	70.9	70.9	49	50.8	1	2	248	0.00	30.019 
12:00	70.8	70.8	70.8	50	51.2	1	3	248	0.00	30.021 
12:05	71.3	71.3	71.3	52	52.8	1	3	225	0.00	30.021 
12:10	71.8	71.8	71.8	48	51.0	1	4	248	0.00	30.021 
12:15	72.1	72.1	72.1	48	51.3	1	4	248	0.00	30.016 
12:20	72.7	72.7	72.7	50	53.0	2	4	112	0.00	30.016 
12:25	72.7	72.7	72.7	51	53.5	1	3	270	0.00	30.016 
12:30	72.3	72.3	72.3	50	52.6	1	2	270	0.00	30.009 
12:35	72.5	72.5	72.5	49	52.2	1	3	248	0.00	30.009 
12:40	72.8	72.8	72.8	53	54.7	1	3	292	0.00	30.009 
12:45	72.8	72.8	72.8	48	52.0	1	4	270	0.00	29.999 
12:50	73.0	73.0	73.0	48	52.1	1	4	248	0.00	29.999 
12:55	73.2	73.2	73.2	50	53.4	1	4	248	0.00	29.999 
13:00	73.2	73.2	73.2	50	53.4	1	4	248	0.00	29.992 
13:05	72.8	72.8	72.8	47	51.4	2	4	248	0.00	29.992 
13:10	72.1	72.1	72.1	50	52.4	1	3	45	0.00	29.992 
13:15	72.1	72.1	72.1	54	54.5	0	2	45	0.00	30.001 
13:20	72.8	72.8	72.8	54	55.2	0	2	45	0.00	30.001 
13:25	73.3	73.3	73.3	51	54.1	1	3	0	0.00	30.001 
13:30	73.7	73.7	73.7	51	54.4	1	3	248	0.00	30.002 
13:35	73.7	73.7	73.7	54	56.0	2	4	270	0.00	30.002 
13:40	73.7	73.7	73.7	55	56.5	1	3	338	0.00	30.002 
13:45	73.5	73.5	73.5	49	53.2	1	4	292	0.00	29.998 
13:50	73.7	73.7	73.7	50	53.9	1	3	315	0.00	29.998 
13:55	73.7	73.7	73.7	54	56.0	1	4	248	0.00	29.998 
14:00	73.5	73.5	73.5	51	54.2	1	4	248	0.00	29.994 
14:05	73.7	73.7	73.7	55	56.5	0	2	248	0.00	29.994 
14:10	73.9	73.9	73.9	53	55.7	2	5	248	0.00	29.994 
14:15	73.9	73.9	73.9	53	55.7	2	4	270	0.00	29.994 
14:20	73.7	73.7	73.7	52	55.0	2	5	292	0.00	29.994 
14:25	73.9	73.9	73.9	51	54.6	2	5	270	0.00	29.994 
14:30	73.7	73.7	73.7	54	56.0	1	4	248	0.00	29.996 
14:35	73.9	73.9	73.9	53	55.7	1	4	248	0.00	29.996 
14:40	74.0	74.0	74.0	52	55.2	2	4	248	0.00	29.996 
14:45	74.4	74.4	74.4	55	57.2	2	5	248	0.00	29.995 
14:50	74.2	74.2	74.2	51	54.9	1	3	248	0.00	29.995 
14:55	74.4	74.4	74.4	54	56.7	1	4	248	0.00	29.995 
15:00	74.7	74.7	74.7	53	56.4	2	7	248	0.00	29.989 
15:05	74.9	74.9	74.9	53	56.6	1	5	270	0.00	29.989 
15:10	74.9	74.9	74.9	52	56.1	1	3	338	0.00	29.989 
15:15	75.3	75.3	77.7	53	57.0	2	5	248	0.00	29.989 
15:20	74.9	74.9	74.9	50	55.0	2	6	248	0.00	29.989 
15:25	74.4	74.4	74.4	49	54.0	1	4	248	0.00	29.989 
15:30	74.2	74.2	74.2	53	56.0	1	4	248	0.00	29.978 
15:35	74.7	74.7	74.7	49	54.3	2	4	248	0.00	29.978 
15:40	74.9	74.9	74.9	48	53.9	2	4	248	0.00	29.978 
15:45	75.3	75.3	77.7	51	55.9	2	3	248	0.00	29.976 
15:50	75.3	75.3	77.7	49	54.8	1	2	270	0.00	29.976 
15:55	75.3	75.3	77.7	50	55.4	1	4	270	0.00	29.976 
16:00	74.9	74.9	74.9	47	53.3	2	5	248	0.00	29.974 
16:05	74.9	74.9	74.9	49	54.4	2	3	225	0.00	29.974 
16:10	74.6	74.6	74.6	50	54.7	1	2	248	0.00	29.974 
16:15	74.9	74.9	74.9	49	54.4	2	4	248	0.00	29.975 
16:20	75.3	75.3	77.7	49	54.8	1	3	248	0.00	29.975 
16:25	75.4	75.4	77.8	49	54.9	1	2	248	0.00	29.975 
16:30	75.4	75.4	77.8	48	54.3	2	6	248	0.00	29.965 
16:35	75.8	75.8	77.9	47	54.1	1	4	248	0.00	29.965 
16:40	75.8	75.8	78.0	49	55.3	1	3	248	0.00	29.965 
16:45	75.8	75.8	77.9	47	54.1	1	2	270	0.00	29.957 
16:50	76.1	76.1	78.1	53	57.7	0	2	270	0.00	29.957 
16:55	76.1	76.1	78.0	45	53.2	1	4	248	0.00	29.957 
17:00	75.8	75.8	77.9	47	54.1	1	5	248	0.00	29.948 
17:05	75.3	75.3	77.7	47	53.7	0	2	248	0.00	29.948 
17:10	74.9	74.9	74.9	48	53.9	0	2	292	0.00	29.948 
17:15	74.9	74.9	74.9	46	52.7	1	2	292	0.00	29.943 
17:20	75.1	75.1	77.7	46	52.9	1	2	270	0.00	29.943 
17:25	75.1	75.1	77.6	45	52.3	0	2	270	0.00	29.943 
17:30	74.9	74.9	74.9	49	54.4	0	1	270	0.00	29.940 
17:35	74.9	74.9	74.9	47	53.3	1	3	270	0.00	29.940 
17:40	74.7	74.7	74.7	46	52.5	1	2	248	0.00	29.940 
17:45	74.9	74.9	74.9	46	52.7	1	2	248	0.00	29.937 
17:50	74.9	74.9	74.9	45	52.1	0	1	225	0.00	29.937 
17:55	75.1	75.1	77.6	45	52.3	0	1	225	0.00	29.937 
18:00	74.9	74.9	74.9	46	52.7	1	3	248	0.00	29.930 
18:05	74.7	74.7	74.7	46	52.5	1	4	225	0.00	29.930 
18:10	74.6	74.6	74.6	45	51.8	1	3	248	0.00	29.930 
18:15	74.4	74.4	74.4	48	53.4	1	3	248	0.00	29.926 
18:20	74.0	74.0	74.0	47	52.5	0	2	248	0.00	29.926 
18:25	73.9	73.9	73.9	48	53.0	0	3	248	0.00	29.926 
18:30	73.7	73.7	73.7	48	52.8	1	3	248	0.00	29.920 
18:35	73.7	73.7	73.7	50	53.9	1	3	248	0.00	29.920 
18:40	73.5	73.5	73.5	50	53.7	1	4	248	0.00	29.920 
18:45	73.2	73.2	73.2	51	54.0	0	2	248	0.00	29.918 
18:50	73.0	73.0	73.0	52	54.3	0	3	248	0.00	29.918 
18:55	72.8	72.8	72.8	52	54.1	0	1	225	0.00	29.918 
19:00	72.7	72.7	72.7	52	54.0	0	1	225	0.00	29.913 
19:05	72.5	72.5	72.5	51	53.3	1	3	202	0.00	29.913 
19:10	72.5	72.5	72.5	52	53.9	0	2	90	0.00	29.913 
19:15	72.5	72.5	72.5	53	54.4	0	1	90	0.00	29.900 
19:20	72.5	72.5	72.5	53	54.4	0	2	112	0.00	29.900 
19:25	72.5	72.5	72.5	52	53.9	0	1	112	0.00	29.900 
19:30	72.3	72.3	72.3	52	53.7	0	2	112	0.00	29.896 
19:35	72.3	72.3	72.3	52	53.7	0	2	112	0.00	29.896 
19:40	72.1	72.1	72.1	53	54.0	0	1	112	0.00	29.896 
19:45	71.8	71.8	71.8	54	54.2	0	1	112	0.00	29.897 
19:50	71.5	71.5	71.5	56	55.0	0	0	---	0.00	29.897 
19:55	71.1	71.1	71.1	55	54.1	0	0	---	0.00	29.897 
20:00	70.9	70.9	70.9	57	54.9	0	0	---	0.00	29.894 
20:05	70.4	70.4	70.4	57	54.4	0	0	---	0.00	29.894 
20:10	70.1	70.1	70.1	58	54.6	0	0	---	0.00	29.894 
20:15	69.6	69.6	69.6	59	54.6	0	0	---	0.00	29.892 
20:20	69.1	69.1	69.1	60	54.6	0	0	---	0.00	29.892 
20:25	68.8	68.8	68.8	61	54.8	0	0	---	0.00	29.892 
20:30	68.4	68.4	68.4	62	54.9	0	0	---	0.00	29.895 
20:35	67.8	67.8	67.8	65	55.6	0	0	---	0.00	29.895 
20:40	67.3	67.3	67.3	65	55.1	0	0	---	0.00	29.895 
20:45	66.8	66.8	66.8	66	55.1	0	0	---	0.00	29.895 
20:50	66.3	66.3	66.3	67	55.0	0	0	---	0.00	29.895 
20:55	65.8	65.8	65.8	68	54.9	0	0	---	0.00	29.895 
21:00	65.5	65.5	65.5	69	55.1	0	0	---	0.00	29.904 
21:05	65.2	65.2	65.2	69	54.8	0	0	---	0.00	29.904 
21:10	64.8	64.8	64.8	70	54.8	0	0	---	0.00	29.904 
21:15	64.5	64.5	64.5	72	55.3	0	0	---	0.00	29.899 
21:20	64.2	64.2	64.2	73	55.4	0	0	---	0.00	29.899 
21:25	63.9	63.9	63.9	73	55.1	0	0	---	0.00	29.899 
21:30	63.7	63.7	63.7	74	55.3	0	0	---	0.00	29.894 
21:35	63.4	63.4	63.4	74	55.0	0	0	---	0.00	29.894 
21:40	63.4	63.4	63.4	75	55.3	0	0	---	0.00	29.894 
21:45	63.2	63.2	63.2	75	55.1	0	0	---	0.00	29.908 
21:50	63.1	63.1	63.1	75	55.0	0	0	---	0.00	29.908 
21:55	63.1	63.1	63.1	75	55.0	0	0	---	0.00	29.908 
22:00	63.2	63.2	63.2	76	55.5	0	0	---	0.00	29.909 
22:05	63.2	63.2	63.2	75	55.1	0	0	---	0.00	29.909 
22:10	63.4	63.4	63.4	74	55.0	0	0	---	0.00	29.909 
22:15	63.4	63.4	63.4	74	55.0	0	0	---	0.00	29.915 
22:20	63.4	63.4	63.4	74	55.0	0	0	---	0.00	29.915 
22:25	63.4	63.4	63.4	74	55.0	0	0	---	0.00	29.915 
22:30	63.5	63.5	63.5	75	55.4	0	0	---	0.00	29.921 
22:35	63.5	63.5	63.5	75	55.4	0	0	---	0.00	29.921 
22:40	63.5	63.5	63.5	76	55.8	0	0	---	0.00	29.921 
22:45	63.5	63.5	63.5	75	55.4	0	0	---	0.00	29.919 
22:50	63.5	63.5	63.5	75	55.4	0	0	---	0.00	29.919 
22:55	63.7	63.7	63.7	74	55.3	0	0	---	0.00	29.919 
23:00	63.9	63.9	63.9	74	55.4	0	0	---	0.00	29.917 
23:05	64.0	64.0	64.0	73	55.2	0	0	---	0.00	29.917 
23:10	64.0	64.0	64.0	74	55.5	0	0	---	0.00	29.917 
23:15	64.0	64.0	64.0	74	55.5	0	0	---	0.00	29.914 
23:20	64.0	64.0	64.0	74	55.5	0	0	---	0.00	29.914 
23:25	64.0	64.0	64.0	74	55.5	0	0	---	0.00	29.914 
23:30	64.0	64.0	64.0	75	55.9	0	0	---	0.00	29.910 
23:35	64.2	64.2	64.2	75	56.1	0	0	---	0.00	29.910 
23:40	64.2	64.2	64.2	75	56.1	0	0	---	0.00	29.910 
23:45	64.2	64.2	64.2	75	56.1	0	0	---	0.00	29.910 
23:50	64.3	64.3	64.3	73	55.5	0	1	112	0.00	29.910 
23:55	64.5	64.5	64.5	74	56.0	0	0	---	0.00	29.910 

CoCoRaHS
IN-AL-39
A2 Web Hosting
Creative Commons License
GoDaddy
Look for:

loaded 2017-12-13 15:50:59 • last modified 2010-11-18 10:43:29
Privacy PolicyDisclaimer
• wx.awcolley.com is powered by PmWiki v.2002016 •
• all content (unless otherwise noted) © 2017 A W Colley